sensor_id;sensor_type;location;lat;lon;timestamp;temperature;humidity
10417;DHT22;62605;49.432;8.680;2023-04-01T00:00:24;10.20;99.90
10417;DHT22;62605;49.432;8.680;2023-04-01T00:03:09;10.20;99.90
10417;DHT22;62605;49.432;8.680;2023-04-01T00:05:39;10.20;99.90
10417;DHT22;62605;49.432;8.680;2023-04-01T00:08:15;10.20;99.90
10417;DHT22;62605;49.432;8.680;2023-04-01T00:11:13;10.20;99.90
10417;DHT22;62605;49.432;8.680;2023-04-01T00:13:53;10.20;99.90
10417;DHT22;62605;49.432;8.680;2023-04-01T00:16:25;10.20;99.90
10417;DHT22;62605;49.432;8.680;2023-04-01T00:19:23;10.30;99.90
10417;DHT22;62605;49.432;8.680;2023-04-01T00:22:10;10.20;99.90
10417;DHT22;62605;49.432;8.680;2023-04-01T00:30:00;10.30;99.90
10417;DHT22;62605;49.432;8.680;2023-04-01T00:32:43;10.20;99.90
10417;DHT22;62605;49.432;8.680;2023-04-01T00:35:19;10.20;99.90
10417;DHT22;62605;49.432;8.680;2023-04-01T00:38:02;10.30;99.90
10417;DHT22;62605;49.432;8.680;2023-04-01T00:40:48;10.30;99.90
10417;DHT22;62605;49.432;8.680;2023-04-01T00:43:29;10.20;99.90
10417;DHT22;62605;49.432;8.680;2023-04-01T00:45:58;10.20;99.90
10417;DHT22;62605;49.432;8.680;2023-04-01T00:48:31;10.30;99.90
10417;DHT22;62605;49.432;8.680;2023-04-01T00:53:46;10.20;99.90
10417;DHT22;62605;49.432;8.680;2023-04-01T00:56:33;10.30;99.90
10417;DHT22;62605;49.432;8.680;2023-04-01T00:59:16;10.30;99.90
10417;DHT22;62605;49.432;8.680;2023-04-01T01:02:18;10.20;99.90
10417;DHT22;62605;49.432;8.680;2023-04-01T01:05:03;10.20;99.90
10417;DHT22;62605;49.432;8.680;2023-04-01T01:18:42;10.20;99.90
10417;DHT22;62605;49.432;8.680;2023-04-01T01:21:46;10.20;99.90
10417;DHT22;62605;49.432;8.680;2023-04-01T01:24:40;10.20;99.90
10417;DHT22;62605;49.432;8.680;2023-04-01T01:27:18;10.10;99.90
10417;DHT22;62605;49.432;8.680;2023-04-01T01:30:23;10.30;99.90
10417;DHT22;62605;49.432;8.680;2023-04-01T01:36:08;10.20;99.90
10417;DHT22;62605;49.432;8.680;2023-04-01T01:38:51;10.20;99.90
10417;DHT22;62605;49.432;8.680;2023-04-01T01:41:31;10.30;99.90
10417;DHT22;62605;49.432;8.680;2023-04-01T01:44:14;10.30;99.90
10417;DHT22;62605;49.432;8.680;2023-04-01T01:46:53;10.30;99.90
10417;DHT22;62605;49.432;8.680;2023-04-01T01:49:29;10.30;89.70
10417;DHT22;62605;49.432;8.680;2023-04-01T01:52:09;10.30;84.80
10417;DHT22;62605;49.432;8.680;2023-04-01T01:54:54;10.30;82.90
10417;DHT22;62605;49.432;8.680;2023-04-01T01:57:32;10.30;81.80
10417;DHT22;62605;49.432;8.680;2023-04-01T02:00:09;10.30;57.70
10417;DHT22;62605;49.432;8.680;2023-04-01T02:02:52;10.30;71.30
10417;DHT22;62605;49.432;8.680;2023-04-01T02:05:34;10.30;41.70
10417;DHT22;62605;49.432;8.680;2023-04-01T02:08:13;10.30;43.00
10417;DHT22;62605;49.432;8.680;2023-04-01T02:11:13;10.40;21.60
10417;DHT22;62605;49.432;8.680;2023-04-01T02:16:20;10.40;20.90
10417;DHT22;62605;49.432;8.680;2023-04-01T02:18:52;10.30;8.30
10417;DHT22;62605;49.432;8.680;2023-04-01T02:21:30;10.40;1.00
10417;DHT22;62605;49.432;8.680;2023-04-01T02:24:14;10.40;1.00
10417;DHT22;62605;49.432;8.680;2023-04-01T02:26:45;10.40;1.00
10417;DHT22;62605;49.432;8.680;2023-04-01T02:29:15;10.40;1.00
10417;DHT22;62605;49.432;8.680;2023-04-01T02:31:58;10.50;1.00
10417;DHT22;62605;49.432;8.680;2023-04-01T02:34:38;10.40;1.00
10417;DHT22;62605;49.432;8.680;2023-04-01T02:37:20;10.50;1.00
10417;DHT22;62605;49.432;8.680;2023-04-01T02:40:04;10.50;1.00
10417;DHT22;62605;49.432;8.680;2023-04-01T02:42:36;10.50;1.00
10417;DHT22;62605;49.432;8.680;2023-04-01T02:45:07;10.50;1.00
10417;DHT22;62605;49.432;8.680;2023-04-01T02:47:39;10.50;1.00
10417;DHT22;62605;49.432;8.680;2023-04-01T02:50:20;10.40;1.00
10417;DHT22;62605;49.432;8.680;2023-04-01T02:53:05;10.40;1.00
10417;DHT22;62605;49.432;8.680;2023-04-01T02:55:44;10.40;1.00
10417;DHT22;62605;49.432;8.680;2023-04-01T02:58:20;10.40;1.00
10417;DHT22;62605;49.432;8.680;2023-04-01T03:01:03;10.40;1.00
10417;DHT22;62605;49.432;8.680;2023-04-01T03:03:44;10.30;1.00
10417;DHT22;62605;49.432;8.680;2023-04-01T03:06:15;10.30;1.00
10417;DHT22;62605;49.432;8.680;2023-04-01T03:08:46;10.40;1.00
10417;DHT22;62605;49.432;8.680;2023-04-01T03:11:20;10.50;1.00
10417;DHT22;62605;49.432;8.680;2023-04-01T03:13:50;10.40;1.00
10417;DHT22;62605;49.432;8.680;2023-04-01T03:16:20;10.40;1.00
10417;DHT22;62605;49.432;8.680;2023-04-01T03:18:49;10.40;1.00
10417;DHT22;62605;49.432;8.680;2023-04-01T03:21:28;10.40;1.00
10417;DHT22;62605;49.432;8.680;2023-04-01T03:23:56;10.40;1.00
10417;DHT22;62605;49.432;8.680;2023-04-01T03:26:38;10.30;1.00
10417;DHT22;62605;49.432;8.680;2023-04-01T03:29:23;10.30;1.00
10417;DHT22;62605;49.432;8.680;2023-04-01T03:32:05;10.40;1.00
10417;DHT22;62605;49.432;8.680;2023-04-01T03:34:36;10.40;1.00
10417;DHT22;62605;49.432;8.680;2023-04-01T03:37:10;10.50;1.00
10417;DHT22;62605;49.432;8.680;2023-04-01T03:39:40;10.40;1.00
10417;DHT22;62605;49.432;8.680;2023-04-01T03:42:10;10.40;1.00
10417;DHT22;62605;49.432;8.680;2023-04-01T03:44:38;10.40;1.00
10417;DHT22;62605;49.432;8.680;2023-04-01T03:47:07;10.40;1.00
10417;DHT22;62605;49.432;8.680;2023-04-01T03:49:39;10.40;1.00
10417;DHT22;62605;49.432;8.680;2023-04-01T03:52:23;10.30;1.00
10417;DHT22;62605;49.432;8.680;2023-04-01T03:54:50;10.50;1.00
10417;DHT22;62605;49.432;8.680;2023-04-01T03:57:38;10.50;1.00
10417;DHT22;62605;49.432;8.680;2023-04-01T04:00:14;10.50;1.00
10417;DHT22;62605;49.432;8.680;2023-04-01T04:02:55;10.50;1.00
10417;DHT22;62605;49.432;8.680;2023-04-01T04:05:27;10.40;1.00
10417;DHT22;62605;49.432;8.680;2023-04-01T04:08:13;10.40;1.00
10417;DHT22;62605;49.432;8.680;2023-04-01T04:10:41;10.40;1.00
10417;DHT22;62605;49.432;8.680;2023-04-01T04:13:24;10.30;1.00
10417;DHT22;62605;49.432;8.680;2023-04-01T04:15:54;10.30;1.00
10417;DHT22;62605;49.432;8.680;2023-04-01T04:18:26;10.20;1.00
10417;DHT22;62605;49.432;8.680;2023-04-01T04:21:06;10.10;1.00
10417;DHT22;62605;49.432;8.680;2023-04-01T04:23:40;10.10;1.00
10417;DHT22;62605;49.432;8.680;2023-04-01T04:26:22;10.00;1.00
10417;DHT22;62605;49.432;8.680;2023-04-01T04:28:59;10.00;1.00
10417;DHT22;62605;49.432;8.680;2023-04-01T04:31:29;10.00;1.00
10417;DHT22;62605;49.432;8.680;2023-04-01T04:34:01;9.90;1.00
10417;DHT22;62605;49.432;8.680;2023-04-01T04:36:35;9.90;1.00
10417;DHT22;62605;49.432;8.680;2023-04-01T04:39:06;9.90;1.00
10417;DHT22;62605;49.432;8.680;2023-04-01T04:41:37;9.90;16.40
10417;DHT22;62605;49.432;8.680;2023-04-01T04:44:39;9.80;63.90
10417;DHT22;62605;49.432;8.680;2023-04-01T04:47:09;9.80;99.90
10417;DHT22;62605;49.432;8.680;2023-04-01T04:49:52;9.80;99.90
10417;DHT22;62605;49.432;8.680;2023-04-01T04:52:30;9.60;99.90
10417;DHT22;62605;49.432;8.680;2023-04-01T04:55:23;9.60;99.90
10417;DHT22;62605;49.432;8.680;2023-04-01T04:57:53;9.60;99.90
10417;DHT22;62605;49.432;8.680;2023-04-01T05:00:41;9.60;99.90
10417;DHT22;62605;49.432;8.680;2023-04-01T05:03:14;9.60;1.00
10417;DHT22;62605;49.432;8.680;2023-04-01T05:05:50;9.50;99.90
10417;DHT22;62605;49.432;8.680;2023-04-01T05:08:33;9.60;1.00
10417;DHT22;62605;49.432;8.680;2023-04-01T05:11:16;9.60;1.00
10417;DHT22;62605;49.432;8.680;2023-04-01T05:13:58;9.60;1.00
10417;DHT22;62605;49.432;8.680;2023-04-01T05:16:42;9.50;99.90
10417;DHT22;62605;49.432;8.680;2023-04-01T05:19:17;9.50;1.00
10417;DHT22;62605;49.432;8.680;2023-04-01T05:21:56;9.50;1.00
10417;DHT22;62605;49.432;8.680;2023-04-01T05:24:27;9.50;1.00
10417;DHT22;62605;49.432;8.680;2023-04-01T05:27:01;9.60;1.00
10417;DHT22;62605;49.432;8.680;2023-04-01T05:29:30;9.60;99.90
10417;DHT22;62605;49.432;8.680;2023-04-01T05:32:23;9.60;99.90
10417;DHT22;62605;49.432;8.680;2023-04-01T05:34:54;9.70;99.90
10417;DHT22;62605;49.432;8.680;2023-04-01T05:40:24;9.70;99.90
10417;DHT22;62605;49.432;8.680;2023-04-01T05:42:52;9.70;99.90
10417;DHT22;62605;49.432;8.680;2023-04-01T05:45:24;9.80;99.90
10417;DHT22;62605;49.432;8.680;2023-04-01T05:48:13;9.80;99.90
10417;DHT22;62605;49.432;8.680;2023-04-01T05:50:47;9.90;99.90
10417;DHT22;62605;49.432;8.680;2023-04-01T05:53:45;9.90;99.90
10417;DHT22;62605;49.432;8.680;2023-04-01T05:56:52;9.90;99.90
10417;DHT22;62605;49.432;8.680;2023-04-01T05:59:37;10.00;99.90
10417;DHT22;62605;49.432;8.680;2023-04-01T06:02:21;10.00;99.90
10417;DHT22;62605;49.432;8.680;2023-04-01T06:05:14;9.90;99.90
10417;DHT22;62605;49.432;8.680;2023-04-01T06:08:05;10.00;99.90
10417;DHT22;62605;49.432;8.680;2023-04-01T06:11:13;10.00;99.90
10417;DHT22;62605;49.432;8.680;2023-04-01T06:14:12;10.10;99.90
10417;DHT22;62605;49.432;8.680;2023-04-01T06:17:12;10.10;99.90
10417;DHT22;62605;49.432;8.680;2023-04-01T06:20:22;10.10;99.90
10417;DHT22;62605;49.432;8.680;2023-04-01T06:23:29;10.10;99.90
10417;DHT22;62605;49.432;8.680;2023-04-01T06:32:48;10.30;91.00
10417;DHT22;62605;49.432;8.680;2023-04-01T06:38:48;10.20;96.40
10417;DHT22;62605;49.432;8.680;2023-04-01T06:45:12;10.20;71.30
10417;DHT22;62605;49.432;8.680;2023-04-01T06:48:23;10.20;66.80
10417;DHT22;62605;49.432;8.680;2023-04-01T07:00:11;10.10;99.90
10417;DHT22;62605;49.432;8.680;2023-04-01T07:02:59;10.10;99.90
10417;DHT22;62605;49.432;8.680;2023-04-01T07:05:47;9.90;99.90
10417;DHT22;62605;49.432;8.680;2023-04-01T07:08:52;9.90;99.90
10417;DHT22;62605;49.432;8.680;2023-04-01T07:14:39;9.70;99.90
10417;DHT22;62605;49.432;8.680;2023-04-01T07:17:42;9.70;1.00
10417;DHT22;62605;49.432;8.680;2023-04-01T07:20:39;9.80;99.90
10417;DHT22;62605;49.432;8.680;2023-04-01T07:23:33;9.70;99.90
10417;DHT22;62605;49.432;8.680;2023-04-01T07:26:48;9.70;1.00
10417;DHT22;62605;49.432;8.680;2023-04-01T07:29:45;9.70;1.00
10417;DHT22;62605;49.432;8.680;2023-04-01T07:38:52;9.80;99.90
10417;DHT22;62605;49.432;8.680;2023-04-01T07:42:00;9.60;99.90
10417;DHT22;62605;49.432;8.680;2023-04-01T07:44:59;9.60;99.90
10417;DHT22;62605;49.432;8.680;2023-04-01T07:47:56;9.60;1.00
10417;DHT22;62605;49.432;8.680;2023-04-01T07:50:50;9.60;99.90
10417;DHT22;62605;49.432;8.680;2023-04-01T07:53:44;9.70;1.00
10417;DHT22;62605;49.432;8.680;2023-04-01T07:56:27;9.60;99.90
10417;DHT22;62605;49.432;8.680;2023-04-01T07:59:03;9.60;1.00
10417;DHT22;62605;49.432;8.680;2023-04-01T08:02:15;9.60;1.00
10417;DHT22;62605;49.432;8.680;2023-04-01T08:04:56;9.50;1.00
10417;DHT22;62605;49.432;8.680;2023-04-01T08:08:24;9.50;1.00
10417;DHT22;62605;49.432;8.680;2023-04-01T08:10:56;9.60;1.00
10417;DHT22;62605;49.432;8.680;2023-04-01T08:13:53;9.60;99.90
10417;DHT22;62605;49.432;8.680;2023-04-01T08:16:33;9.70;99.90
10417;DHT22;62605;49.432;8.680;2023-04-01T08:19:13;9.70;1.00
10417;DHT22;62605;49.432;8.680;2023-04-01T08:21:45;9.80;99.90
10417;DHT22;62605;49.432;8.680;2023-04-01T08:24:20;9.80;99.90
10417;DHT22;62605;49.432;8.680;2023-04-01T08:26:51;9.80;99.90
10417;DHT22;62605;49.432;8.680;2023-04-01T08:29:25;9.90;1.00
10417;DHT22;62605;49.432;8.680;2023-04-01T08:31:56;9.80;99.90
10417;DHT22;62605;49.432;8.680;2023-04-01T08:34:30;9.80;1.00
10417;DHT22;62605;49.432;8.680;2023-04-01T08:37:04;9.80;99.90
10417;DHT22;62605;49.432;8.680;2023-04-01T08:39:34;9.80;1.00
10417;DHT22;62605;49.432;8.680;2023-04-01T08:45:29;10.00;99.90
10417;DHT22;62605;49.432;8.680;2023-04-01T08:48:33;10.00;1.00
10417;DHT22;62605;49.432;8.680;2023-04-01T08:51:48;10.00;69.00
10417;DHT22;62605;49.432;8.680;2023-04-01T08:54:45;9.90;99.90
10417;DHT22;62605;49.432;8.680;2023-04-01T08:57:18;9.90;99.90
10417;DHT22;62605;49.432;8.680;2023-04-01T08:59:57;9.80;1.00
10417;DHT22;62605;49.432;8.680;2023-04-01T09:06:00;9.80;1.00
10417;DHT22;62605;49.432;8.680;2023-04-01T09:08:38;9.80;99.90
10417;DHT22;62605;49.432;8.680;2023-04-01T09:11:13;9.90;1.00
10417;DHT22;62605;49.432;8.680;2023-04-01T09:14:17;10.00;1.00
10417;DHT22;62605;49.432;8.680;2023-04-01T09:23:15;10.00;99.90
10417;DHT22;62605;49.432;8.680;2023-04-01T09:25:53;9.90;89.80
10417;DHT22;62605;49.432;8.680;2023-04-01T09:35:17;10.00;1.00
10417;DHT22;62605;49.432;8.680;2023-04-01T09:37:53;10.00;1.00
10417;DHT22;62605;49.432;8.680;2023-04-01T09:40:34;10.00;99.90
10417;DHT22;62605;49.432;8.680;2023-04-01T09:43:30;10.00;99.90
10417;DHT22;62605;49.432;8.680;2023-04-01T09:46:20;10.10;1.00
10417;DHT22;62605;49.432;8.680;2023-04-01T09:49:13;10.10;99.90
10417;DHT22;62605;49.432;8.680;2023-04-01T09:51:54;10.00;1.00
10417;DHT22;62605;49.432;8.680;2023-04-01T09:54:37;10.00;1.00
10417;DHT22;62605;49.432;8.680;2023-04-01T09:57:30;9.90;1.00
10417;DHT22;62605;49.432;8.680;2023-04-01T10:00:26;10.00;99.90
10417;DHT22;62605;49.432;8.680;2023-04-01T10:03:45;10.00;1.00
10417;DHT22;62605;49.432;8.680;2023-04-01T10:12:50;10.00;1.00
10417;DHT22;62605;49.432;8.680;2023-04-01T10:18:30;10.00;99.90
10417;DHT22;62605;49.432;8.680;2023-04-01T10:21:22;10.20;99.90
10417;DHT22;62605;49.432;8.680;2023-04-01T10:24:13;10.20;1.00
10417;DHT22;62605;49.432;8.680;2023-04-01T10:27:02;10.30;1.00
10417;DHT22;62605;49.432;8.680;2023-04-01T10:33:09;10.20;1.00
10417;DHT22;62605;49.432;8.680;2023-04-01T10:36:16;10.20;1.00
10417;DHT22;62605;49.432;8.680;2023-04-01T10:42:17;10.30;1.00
10417;DHT22;62605;49.432;8.680;2023-04-01T10:45:17;10.30;1.00
10417;DHT22;62605;49.432;8.680;2023-04-01T10:48:18;10.30;99.90
10417;DHT22;62605;49.432;8.680;2023-04-01T10:53:52;10.30;1.00
10417;DHT22;62605;49.432;8.680;2023-04-01T10:56:45;10.20;1.00
10417;DHT22;62605;49.432;8.680;2023-04-01T10:59:53;10.30;1.00
10417;DHT22;62605;49.432;8.680;2023-04-01T11:02:55;10.20;1.00
10417;DHT22;62605;49.432;8.680;2023-04-01T11:05:42;10.30;1.00
10417;DHT22;62605;49.432;8.680;2023-04-01T11:24:36;10.40;1.00
10417;DHT22;62605;49.432;8.680;2023-04-01T11:27:30;10.50;1.00
10417;DHT22;62605;49.432;8.680;2023-04-01T11:30:14;10.50;95.00
10417;DHT22;62605;49.432;8.680;2023-04-01T11:32:55;10.40;1.00
10417;DHT22;62605;49.432;8.680;2023-04-01T11:35:52;10.40;1.00
10417;DHT22;62605;49.432;8.680;2023-04-01T11:38:53;10.40;1.00
10417;DHT22;62605;49.432;8.680;2023-04-01T11:41:31;10.30;1.00
10417;DHT22;62605;49.432;8.680;2023-04-01T11:44:17;10.40;1.00
10417;DHT22;62605;49.432;8.680;2023-04-01T11:46:53;10.40;4.80
10417;DHT22;62605;49.432;8.680;2023-04-01T11:49:50;10.40;99.90
10417;DHT22;62605;49.432;8.680;2023-04-01T11:55:51;10.50;99.90
10417;DHT22;62605;49.432;8.680;2023-04-01T11:58:34;10.50;99.90
10417;DHT22;62605;49.432;8.680;2023-04-01T12:01:16;10.60;99.90
10417;DHT22;62605;49.432;8.680;2023-04-01T12:04:24;10.60;99.90
10417;DHT22;62605;49.432;8.680;2023-04-01T12:07:02;10.70;99.90
10417;DHT22;62605;49.432;8.680;2023-04-01T12:09:38;10.70;99.90
10417;DHT22;62605;49.432;8.680;2023-04-01T12:12:17;10.80;99.90
10417;DHT22;62605;49.432;8.680;2023-04-01T12:14:54;10.80;99.90
10417;DHT22;62605;49.432;8.680;2023-04-01T12:17:32;10.80;99.90
10417;DHT22;62605;49.432;8.680;2023-04-01T12:20:18;10.80;99.90
10417;DHT22;62605;49.432;8.680;2023-04-01T12:22:55;10.70;1.00
10417;DHT22;62605;49.432;8.680;2023-04-01T12:25:43;10.70;99.90
10417;DHT22;62605;49.432;8.680;2023-04-01T12:28:20;10.70;99.90
10417;DHT22;62605;49.432;8.680;2023-04-01T12:31:00;10.70;1.00
10417;DHT22;62605;49.432;8.680;2023-04-01T12:33:57;10.70;80.70
10417;DHT22;62605;49.432;8.680;2023-04-01T12:36:35;10.70;1.00
10417;DHT22;62605;49.432;8.680;2023-04-01T12:39:29;10.80;1.00
10417;DHT22;62605;49.432;8.680;2023-04-01T12:42:07;10.80;99.90
10417;DHT22;62605;49.432;8.680;2023-04-01T12:44:58;10.90;1.00
10417;DHT22;62605;49.432;8.680;2023-04-01T12:47:55;10.80;1.00
10417;DHT22;62605;49.432;8.680;2023-04-01T12:50:47;10.80;1.00
10417;DHT22;62605;49.432;8.680;2023-04-01T12:53:43;10.80;1.00
10417;DHT22;62605;49.432;8.680;2023-04-01T12:56:14;10.90;1.00
10417;DHT22;62605;49.432;8.680;2023-04-01T12:59:20;10.90;99.90
10417;DHT22;62605;49.432;8.680;2023-04-01T13:02:00;11.00;11.20
10417;DHT22;62605;49.432;8.680;2023-04-01T13:04:45;11.00;99.90
10417;DHT22;62605;49.432;8.680;2023-04-01T13:10:38;11.10;1.00
10417;DHT22;62605;49.432;8.680;2023-04-01T13:16:08;11.20;99.90
10417;DHT22;62605;49.432;8.680;2023-04-01T13:18:52;11.20;1.00
10417;DHT22;62605;49.432;8.680;2023-04-01T13:21:31;11.20;1.00
10417;DHT22;62605;49.432;8.680;2023-04-01T13:24:05;11.20;99.90
10417;DHT22;62605;49.432;8.680;2023-04-01T13:26:41;11.30;99.90
10417;DHT22;62605;49.432;8.680;2023-04-01T13:29:16;11.20;99.90
10417;DHT22;62605;49.432;8.680;2023-04-01T13:34:46;11.30;1.00
10417;DHT22;62605;49.432;8.680;2023-04-01T13:37:29;11.30;99.90
10417;DHT22;62605;49.432;8.680;2023-04-01T13:40:26;11.30;99.90
10417;DHT22;62605;49.432;8.680;2023-04-01T13:42:58;11.30;99.90
10417;DHT22;62605;49.432;8.680;2023-04-01T13:45:32;11.30;99.90
10417;DHT22;62605;49.432;8.680;2023-04-01T13:51:54;11.30;1.00
10417;DHT22;62605;49.432;8.680;2023-04-01T13:54:42;11.30;1.00
10417;DHT22;62605;49.432;8.680;2023-04-01T13:57:31;11.40;1.00
10417;DHT22;62605;49.432;8.680;2023-04-01T14:00:23;11.40;1.00
10417;DHT22;62605;49.432;8.680;2023-04-01T14:03:27;11.40;99.90
10417;DHT22;62605;49.432;8.680;2023-04-01T14:06:12;11.50;99.90
10417;DHT22;62605;49.432;8.680;2023-04-01T14:09:19;11.40;99.90
10417;DHT22;62605;49.432;8.680;2023-04-01T14:11:56;11.40;99.90
10417;DHT22;62605;49.432;8.680;2023-04-01T14:14:40;11.50;99.90
10417;DHT22;62605;49.432;8.680;2023-04-01T14:17:29;11.40;99.90
10417;DHT22;62605;49.432;8.680;2023-04-01T14:20:25;11.40;99.90
10417;DHT22;62605;49.432;8.680;2023-04-01T14:23:15;11.40;99.90
10417;DHT22;62605;49.432;8.680;2023-04-01T14:28:51;11.30;99.90
10417;DHT22;62605;49.432;8.680;2023-04-01T14:31:48;11.40;99.90
10417;DHT22;62605;49.432;8.680;2023-04-01T14:34:35;11.40;99.90
10417;DHT22;62605;49.432;8.680;2023-04-01T14:40:22;11.40;47.50
10417;DHT22;62605;49.432;8.680;2023-04-01T14:43:10;11.30;1.00
10417;DHT22;62605;49.432;8.680;2023-04-01T14:45:55;11.40;38.40
10417;DHT22;62605;49.432;8.680;2023-04-01T14:48:32;11.30;1.00
10417;DHT22;62605;49.432;8.680;2023-04-01T14:51:08;11.30;2.90
10417;DHT22;62605;49.432;8.680;2023-04-01T14:53:38;11.30;7.30
10417;DHT22;62605;49.432;8.680;2023-04-01T14:56:11;11.20;56.00
10417;DHT22;62605;49.432;8.680;2023-04-01T14:58:45;11.20;1.00
10417;DHT22;62605;49.432;8.680;2023-04-01T15:01:35;11.20;47.30
10417;DHT22;62605;49.432;8.680;2023-04-01T15:04:21;11.20;1.00
10417;DHT22;62605;49.432;8.680;2023-04-01T15:07:02;11.20;5.20
10417;DHT22;62605;49.432;8.680;2023-04-01T15:09:37;11.20;1.00
10417;DHT22;62605;49.432;8.680;2023-04-01T15:12:17;11.30;1.00
10417;DHT22;62605;49.432;8.680;2023-04-01T15:15:10;11.30;1.00
10417;DHT22;62605;49.432;8.680;2023-04-01T15:17:48;11.30;1.00
10417;DHT22;62605;49.432;8.680;2023-04-01T15:20:43;11.30;1.00
10417;DHT22;62605;49.432;8.680;2023-04-01T15:23:23;11.30;53.80
10417;DHT22;62605;49.432;8.680;2023-04-01T15:26:12;11.30;1.00
10417;DHT22;62605;49.432;8.680;2023-04-01T15:28:49;11.20;7.90
10417;DHT22;62605;49.432;8.680;2023-04-01T15:31:26;11.20;53.70
10417;DHT22;62605;49.432;8.680;2023-04-01T15:34:08;11.20;93.20
10417;DHT22;62605;49.432;8.680;2023-04-01T15:36:44;11.20;99.90
10417;DHT22;62605;49.432;8.680;2023-04-01T15:39:20;11.10;1.00
10417;DHT22;62605;49.432;8.680;2023-04-01T15:42:17;11.00;41.00
10417;DHT22;62605;49.432;8.680;2023-04-01T15:44:55;10.90;1.00
10417;DHT22;62605;49.432;8.680;2023-04-01T15:47:34;11.00;1.00
10417;DHT22;62605;49.432;8.680;2023-04-01T15:50:31;10.90;1.00
10417;DHT22;62605;49.432;8.680;2023-04-01T15:53:10;11.00;99.90
10417;DHT22;62605;49.432;8.680;2023-04-01T15:55:40;11.00;1.00
10417;DHT22;62605;49.432;8.680;2023-04-01T15:58:25;11.10;1.00
10417;DHT22;62605;49.432;8.680;2023-04-01T16:01:01;11.10;1.00
10417;DHT22;62605;49.432;8.680;2023-04-01T16:03:38;11.10;1.00
10417;DHT22;62605;49.432;8.680;2023-04-01T16:06:42;11.10;99.90
10417;DHT22;62605;49.432;8.680;2023-04-01T16:12:15;11.10;99.90
10417;DHT22;62605;49.432;8.680;2023-04-01T16:14:54;11.10;99.90
10417;DHT22;62605;49.432;8.680;2023-04-01T16:17:48;11.10;99.90
10417;DHT22;62605;49.432;8.680;2023-04-01T16:20:23;11.10;99.90
10417;DHT22;62605;49.432;8.680;2023-04-01T16:22:56;11.10;99.90
10417;DHT22;62605;49.432;8.680;2023-04-01T16:25:33;11.00;99.90
10417;DHT22;62605;49.432;8.680;2023-04-01T16:28:16;11.00;99.90
10417;DHT22;62605;49.432;8.680;2023-04-01T16:30:55;11.00;99.90
10417;DHT22;62605;49.432;8.680;2023-04-01T16:33:32;11.00;99.90
10417;DHT22;62605;49.432;8.680;2023-04-01T16:36:12;11.00;99.90
10417;DHT22;62605;49.432;8.680;2023-04-01T16:38:46;11.10;74.70
10417;DHT22;62605;49.432;8.680;2023-04-01T16:41:18;11.10;99.90
10417;DHT22;62605;49.432;8.680;2023-04-01T16:43:48;11.00;99.90
10417;DHT22;62605;49.432;8.680;2023-04-01T16:46:33;11.10;99.90
10417;DHT22;62605;49.432;8.680;2023-04-01T16:49:13;11.10;99.90
10417;DHT22;62605;49.432;8.680;2023-04-01T16:51:52;11.10;99.90
10417;DHT22;62605;49.432;8.680;2023-04-01T16:54:28;11.10;99.90
10417;DHT22;62605;49.432;8.680;2023-04-01T16:57:09;11.00;99.90
10417;DHT22;62605;49.432;8.680;2023-04-01T16:59:46;11.10;99.90
10417;DHT22;62605;49.432;8.680;2023-04-01T17:02:16;11.10;99.90
10417;DHT22;62605;49.432;8.680;2023-04-01T17:04:45;11.10;99.90
10417;DHT22;62605;49.432;8.680;2023-04-01T17:07:23;11.00;94.80
10417;DHT22;62605;49.432;8.680;2023-04-01T17:10:04;11.00;99.90
10417;DHT22;62605;49.432;8.680;2023-04-01T17:12:37;11.00;56.80
10417;DHT22;62605;49.432;8.680;2023-04-01T17:15:15;11.00;1.00
10417;DHT22;62605;49.432;8.680;2023-04-01T17:17:49;11.00;1.00
10417;DHT22;62605;49.432;8.680;2023-04-01T17:20:34;11.00;1.00
10417;DHT22;62605;49.432;8.680;2023-04-01T17:23:13;11.00;1.00
10417;DHT22;62605;49.432;8.680;2023-04-01T17:26:06;11.00;1.00
10417;DHT22;62605;49.432;8.680;2023-04-01T17:28:44;11.00;1.00
10417;DHT22;62605;49.432;8.680;2023-04-01T17:34:23;10.80;99.90
10417;DHT22;62605;49.432;8.680;2023-04-01T17:37:09;10.70;1.00
10417;DHT22;62605;49.432;8.680;2023-04-01T17:39:54;10.60;1.00
10417;DHT22;62605;49.432;8.680;2023-04-01T17:42:31;10.60;1.00
10417;DHT22;62605;49.432;8.680;2023-04-01T17:45:05;10.50;1.00
10417;DHT22;62605;49.432;8.680;2023-04-01T17:47:44;10.40;99.90
10417;DHT22;62605;49.432;8.680;2023-04-01T17:50:23;10.50;1.00
10417;DHT22;62605;49.432;8.680;2023-04-01T17:53:05;10.40;1.00
10417;DHT22;62605;49.432;8.680;2023-04-01T17:55:45;10.30;99.90
10417;DHT22;62605;49.432;8.680;2023-04-01T17:58:18;10.30;1.00
10417;DHT22;62605;49.432;8.680;2023-04-01T18:00:55;10.20;99.90
10417;DHT22;62605;49.432;8.680;2023-04-01T18:03:42;10.30;81.10
10417;DHT22;62605;49.432;8.680;2023-04-01T18:06:18;10.30;99.90
10417;DHT22;62605;49.432;8.680;2023-04-01T18:08:57;10.20;99.90
10417;DHT22;62605;49.432;8.680;2023-04-01T18:11:43;10.30;1.00
10417;DHT22;62605;49.432;8.680;2023-04-01T18:14:42;10.20;1.00
10417;DHT22;62605;49.432;8.680;2023-04-01T18:17:25;10.20;99.90
10417;DHT22;62605;49.432;8.680;2023-04-01T18:20:07;10.20;1.00
10417;DHT22;62605;49.432;8.680;2023-04-01T18:22:41;10.10;1.00
10417;DHT22;62605;49.432;8.680;2023-04-01T18:25:22;10.10;1.00
10417;DHT22;62605;49.432;8.680;2023-04-01T18:28:18;10.10;99.90
10417;DHT22;62605;49.432;8.680;2023-04-01T18:30:53;10.10;99.90
10417;DHT22;62605;49.432;8.680;2023-04-01T18:33:25;10.00;99.90
10417;DHT22;62605;49.432;8.680;2023-04-01T18:36:03;10.10;1.00
10417;DHT22;62605;49.432;8.680;2023-04-01T18:38:35;10.00;1.00
10417;DHT22;62605;49.432;8.680;2023-04-01T18:41:13;9.90;1.00
10417;DHT22;62605;49.432;8.680;2023-04-01T18:43:51;9.90;99.90
10417;DHT22;62605;49.432;8.680;2023-04-01T18:46:30;9.90;99.90
10417;DHT22;62605;49.432;8.680;2023-04-01T18:49:07;9.90;1.00
10417;DHT22;62605;49.432;8.680;2023-04-01T18:51:41;9.80;1.00
10417;DHT22;62605;49.432;8.680;2023-04-01T18:54:16;9.80;99.90
10417;DHT22;62605;49.432;8.680;2023-04-01T18:56:46;9.80;99.90
10417;DHT22;62605;49.432;8.680;2023-04-01T18:59:19;9.80;1.00
10417;DHT22;62605;49.432;8.680;2023-04-01T19:01:52;9.80;1.00
10417;DHT22;62605;49.432;8.680;2023-04-01T19:04:28;9.80;99.90
10417;DHT22;62605;49.432;8.680;2023-04-01T19:06:58;9.80;1.00
10417;DHT22;62605;49.432;8.680;2023-04-01T19:09:27;9.70;1.00
10417;DHT22;62605;49.432;8.680;2023-04-01T19:12:12;9.80;1.00
10417;DHT22;62605;49.432;8.680;2023-04-01T19:14:55;9.70;1.00
10417;DHT22;62605;49.432;8.680;2023-04-01T19:17:36;9.80;1.00
10417;DHT22;62605;49.432;8.680;2023-04-01T19:20:12;9.70;1.00
10417;DHT22;62605;49.432;8.680;2023-04-01T19:22:54;9.80;1.00
10417;DHT22;62605;49.432;8.680;2023-04-01T19:25:29;9.70;1.00
10417;DHT22;62605;49.432;8.680;2023-04-01T19:28:05;9.70;1.00
10417;DHT22;62605;49.432;8.680;2023-04-01T19:30:48;9.60;1.00
10417;DHT22;62605;49.432;8.680;2023-04-01T19:33:32;9.60;1.00
10417;DHT22;62605;49.432;8.680;2023-04-01T19:36:10;9.60;99.90
10417;DHT22;62605;49.432;8.680;2023-04-01T19:38:39;9.70;99.90
10417;DHT22;62605;49.432;8.680;2023-04-01T19:41:19;9.60;99.90